createdAt,value
2022-10-05T00:00:22.085Z,70.61
2022-10-05T00:02:52.303Z,70.71
2022-10-05T00:05:33.157Z,70.71
2022-10-05T00:08:23.367Z,70.72
2022-10-05T00:10:51.524Z,70.50
2022-10-05T00:13:28.547Z,70.31
2022-10-05T00:16:10.387Z,69.64
2022-10-05T00:18:37.664Z,69.89
2022-10-05T00:21:18.303Z,69.69
2022-10-05T00:23:44.969Z,70.33
2022-10-05T00:26:21.632Z,70.45
2022-10-05T00:28:48.849Z,71.67
2022-10-05T00:31:22.268Z,72.71
2022-10-05T00:33:50.004Z,72.26
2022-10-05T00:36:17.352Z,72.51
2022-10-05T00:38:44.874Z,71.64
2022-10-05T00:41:34.297Z,71.73
2022-10-05T00:44:24.510Z,71.45
2022-10-05T00:47:17.202Z,71.34
2022-10-05T00:50:21.966Z,70.96
2022-10-05T00:53:47.671Z,71.26
2022-10-05T00:56:31.885Z,70.46
2022-10-05T00:59:44.610Z,70.85
2022-10-05T01:02:34.414Z,71.24
2022-10-05T01:05:15.710Z,70.87
2022-10-05T01:08:22.340Z,70.62
2022-10-05T01:11:37.064Z,70.44
2022-10-05T01:14:13.010Z,71.58
2022-10-05T01:16:52.052Z,71.69
2022-10-05T01:20:02.063Z,72.24
2022-10-05T01:23:22.563Z,73.02
2022-10-05T01:26:34.070Z,72.59
2022-10-05T01:29:47.695Z,71.52
2022-10-05T01:32:43.189Z,70.89
2022-10-05T01:38:34.428Z,70.58
2022-10-05T01:41:29.514Z,70.16
2022-10-05T01:44:23.904Z,70.40
2022-10-05T01:47:09.034Z,70.32
2022-10-05T01:50:01.155Z,70.57
2022-10-05T01:53:05.427Z,70.82
2022-10-05T01:56:13.242Z,70.37
2022-10-05T01:59:11.206Z,70.73
2022-10-05T02:02:01.708Z,71.03
2022-10-05T02:05:01.607Z,70.98
2022-10-05T02:07:40.088Z,71.01
2022-10-05T02:10:23.674Z,71.26
2022-10-05T02:13:00.596Z,71.27
2022-10-05T02:16:01.682Z,71.74
2022-10-05T02:19:08.168Z,72.26
2022-10-05T02:21:36.593Z,72.29
2022-10-05T02:24:16.442Z,71.68
2022-10-05T02:26:43.412Z,71.42
2022-10-05T02:29:15.711Z,71.13
2022-10-05T02:31:58.059Z,70.53
2022-10-05T02:34:24.483Z,70.43
2022-10-05T02:37:31.222Z,70.25
2022-10-05T02:40:39.728Z,70.14
2022-10-05T02:43:45.602Z,69.96
2022-10-05T02:47:04.499Z,70.85
2022-10-05T02:50:15.474Z,70.96
2022-10-05T02:53:11.960Z,71.90
2022-10-05T02:56:24.028Z,71.35
2022-10-05T02:59:17.611Z,71.04
2022-10-05T03:02:14.522Z,70.13
2022-10-05T03:05:12.567Z,69.78
2022-10-05T03:07:54.421Z,70.20
2022-10-05T03:11:07.760Z,70.48
2022-10-05T03:13:55.812Z,71.08
2022-10-05T03:16:32.103Z,70.89
2022-10-05T03:19:22.098Z,70.42
2022-10-05T03:22:01.410Z,70.12
2022-10-05T03:25:05.183Z,69.84
2022-10-05T03:28:06.197Z,70.15
2022-10-05T03:30:46.657Z,70.72
2022-10-05T03:33:31.565Z,70.71
2022-10-05T03:36:25.085Z,70.49
2022-10-05T03:39:26.176Z,71.47
2022-10-05T03:42:16.004Z,71.08
2022-10-05T03:45:25.915Z,70.52
2022-10-05T03:48:05.627Z,70.08
2022-10-05T03:50:58.925Z,69.86
2022-10-05T03:53:41.674Z,70.66
2022-10-05T03:56:33.303Z,70.60
2022-10-05T03:59:22.636Z,70.51
2022-10-05T04:02:02.757Z,70.62
2022-10-05T04:04:50.897Z,70.21
2022-10-05T04:08:26.801Z,70.69
2022-10-05T04:10:59.533Z,71.06
2022-10-05T04:13:39.510Z,70.71
2022-10-05T04:16:36.123Z,70.53
2022-10-05T04:19:24.581Z,70.85
2022-10-05T04:22:36.339Z,71.10
2022-10-05T04:25:29.566Z,70.49
2022-10-05T04:28:18.616Z,70.52
2022-10-05T04:30:50.455Z,71.21
2022-10-05T04:33:17.310Z,71.92
2022-10-05T04:36:10.886Z,71.78
2022-10-05T04:39:25.377Z,71.78
2022-10-05T04:42:21.724Z,72.30
2022-10-05T04:45:14.381Z,71.68
2022-10-05T04:48:31.376Z,71.98
2022-10-05T04:51:16.089Z,71.88
2022-10-05T04:53:56.911Z,71.31
2022-10-05T04:56:41.318Z,71.71
2022-10-05T04:59:45.466Z,72.21
2022-10-05T05:02:42.217Z,72.27
2022-10-05T05:06:15.213Z,72.15
2022-10-05T05:09:04.609Z,71.24
2022-10-05T05:12:12.832Z,70.97
2022-10-05T05:15:06.580Z,71.05
2022-10-05T05:17:32.916Z,70.88
2022-10-05T05:20:49.563Z,70.40
2022-10-05T05:23:35.909Z,70.65
2022-10-05T05:26:05.241Z,70.76
2022-10-05T05:28:50.392Z,69.91
2022-10-05T05:31:38.921Z,70.22
2022-10-05T05:34:48.400Z,69.87
2022-10-05T05:37:48.283Z,70.06
2022-10-05T05:40:30.219Z,70.16
2022-10-05T05:43:03.099Z,70.62
2022-10-05T05:46:00.405Z,70.99
2022-10-05T05:48:43.589Z,71.44
2022-10-05T05:51:19.787Z,71.65
2022-10-05T05:54:24.973Z,70.91
2022-10-05T05:57:21.517Z,70.94
2022-10-05T06:00:05.446Z,70.82
2022-10-05T06:02:48.240Z,70.84
2022-10-05T06:05:27.006Z,70.39
2022-10-05T06:07:58.131Z,69.72
2022-10-05T06:10:47.101Z,69.55
2022-10-05T06:13:31.330Z,69.64
2022-10-05T06:16:23.923Z,69.65
2022-10-05T06:19:05.240Z,69.43
2022-10-05T06:22:02.483Z,69.45
2022-10-05T06:24:41.563Z,69.60
2022-10-05T06:27:37.801Z,69.56
2022-10-05T06:30:15.620Z,69.42
2022-10-05T06:32:57.278Z,69.17
2022-10-05T06:36:12.896Z,69.85
2022-10-05T06:39:00.509Z,70.54
2022-10-05T06:42:01.516Z,70.36
2022-10-05T06:44:49.064Z,70.67
2022-10-05T06:47:31.044Z,70.59
2022-10-05T06:50:21.503Z,70.61
2022-10-05T06:53:34.134Z,70.38
2022-10-05T06:56:37.371Z,70.22
2022-10-05T06:59:25.152Z,70.47
2022-10-05T07:02:25.052Z,70.93
2022-10-05T07:05:02.076Z,70.98
2022-10-05T07:07:36.406Z,70.64
2022-10-05T07:10:27.575Z,70.55
2022-10-05T07:13:07.708Z,69.81
2022-10-05T07:16:07.513Z,69.90
2022-10-05T07:18:53.941Z,70.04
2022-10-05T07:21:42.156Z,70.77
2022-10-05T07:24:58.054Z,71.01
2022-10-05T07:27:30.460Z,70.88
2022-10-05T07:30:11.422Z,70.72
2022-10-05T07:33:09.185Z,71.11
2022-10-05T07:35:57.022Z,70.50
2022-10-05T07:38:33.618Z,70.55
2022-10-05T07:41:08.765Z,72.90
2022-10-05T07:44:02.632Z,71.46
2022-10-05T07:46:55.356Z,70.65
2022-10-05T07:49:33.475Z,70.34
2022-10-05T07:52:06.617Z,70.53
2022-10-05T07:55:02.167Z,70.89
2022-10-05T07:57:47.783Z,70.57
2022-10-05T08:00:20.791Z,70.46
2022-10-05T08:03:06.965Z,70.30
2022-10-05T08:05:41.480Z,70.27
2022-10-05T08:08:12.354Z,70.56
2022-10-05T08:11:16.899Z,70.58
2022-10-05T08:14:21.706Z,71.34
2022-10-05T08:16:54.012Z,70.71
2022-10-05T08:19:34.145Z,70.75
2022-10-05T08:22:10.727Z,70.44
2022-10-05T08:24:51.551Z,73.21
2022-10-05T08:27:35.271Z,71.28
2022-10-05T08:30:08.729Z,71.03
2022-10-05T08:32:47.272Z,71.11
2022-10-05T08:35:33.894Z,71.17
2022-10-05T08:38:15.807Z,71.58
2022-10-05T08:41:12.818Z,71.46
2022-10-05T08:44:03.396Z,71.54
2022-10-05T08:46:57.318Z,71.62
2022-10-05T08:49:42.003Z,71.79
2022-10-05T08:52:31.175Z,71.24
2022-10-05T08:55:09.559Z,70.86
2022-10-05T08:58:07.904Z,70.74
2022-10-05T09:01:05.792Z,70.59
2022-10-05T09:04:10.517Z,70.67
2022-10-05T09:07:14.832Z,70.26
2022-10-05T09:10:08.056Z,70.22
2022-10-05T09:13:15.980Z,70.06
2022-10-05T09:16:18.496Z,70.12
2022-10-05T09:19:04.526Z,69.89
2022-10-05T09:21:48.784Z,69.52
2022-10-05T09:24:46.213Z,69.31
2022-10-05T09:27:17.814Z,69.25
2022-10-05T09:30:13.990Z,68.91
2022-10-05T09:33:13.570Z,68.71
2022-10-05T09:36:07.451Z,68.79
2022-10-05T09:38:58.078Z,68.37
2022-10-05T09:41:42.502Z,68.06
2022-10-05T09:44:53.255Z,67.87
2022-10-05T09:47:59.726Z,67.71
2022-10-05T09:50:40.786Z,67.99
2022-10-05T09:53:43.126Z,67.56
2022-10-05T09:56:39.312Z,67.16
2022-10-05T09:59:36.562Z,67.51
2022-10-05T10:02:30.712Z,67.25
2022-10-05T10:05:33.780Z,66.89
2022-10-05T10:08:13.690Z,66.56
2022-10-05T10:11:40.499Z,66.15
2022-10-05T10:14:26.760Z,65.97
2022-10-05T10:17:01.016Z,65.92
2022-10-05T10:20:00.410Z,65.86
2022-10-05T10:22:58.028Z,66.16
2022-10-05T10:26:03.788Z,65.39
2022-10-05T10:28:52.231Z,66.22
2022-10-05T10:31:52.678Z,66.17
2022-10-05T10:34:56.250Z,65.69
2022-10-05T10:38:00.251Z,66.34
2022-10-05T10:40:54.826Z,65.97
2022-10-05T10:44:18.850Z,65.53
2022-10-05T10:47:00.447Z,65.96
2022-10-05T10:50:07.069Z,64.98
2022-10-05T10:53:28.696Z,64.67
2022-10-05T10:56:29.406Z,64.69
2022-10-05T10:59:47.420Z,63.70
2022-10-05T11:02:37.931Z,64.69
2022-10-05T11:05:58.519Z,64.57
2022-10-05T11:09:00.008Z,64.51
2022-10-05T11:12:00.138Z,64.59
2022-10-05T11:15:13.305Z,63.84
2022-10-05T11:18:10.395Z,63.67
2022-10-05T11:21:04.319Z,64.35
2022-10-05T11:23:55.269Z,64.23
2022-10-05T11:26:42.165Z,63.87
2022-10-05T11:30:05.842Z,64.01
2022-10-05T11:33:11.219Z,64.07
2022-10-05T11:36:13.984Z,64.06
2022-10-05T11:39:11.315Z,63.38
2022-10-05T11:42:01.806Z,63.57
2022-10-05T11:45:12.868Z,63.47
2022-10-05T11:48:23.319Z,63.37
2022-10-05T11:51:12.013Z,63.57
2022-10-05T11:53:57.466Z,63.16
2022-10-05T11:56:39.579Z,63.41
2022-10-05T11:59:21.178Z,63.77
2022-10-05T12:02:28.365Z,63.32
2022-10-05T12:05:21.085Z,63.49
2022-10-05T12:08:29.416Z,63.22
2022-10-05T12:11:57.645Z,63.37
2022-10-05T12:14:57.920Z,63.31
2022-10-05T12:17:40.629Z,63.16
2022-10-05T12:20:20.710Z,63.00
2022-10-05T12:23:10.741Z,63.12
2022-10-05T12:25:53.797Z,62.41
2022-10-05T12:28:31.089Z,62.76
2022-10-05T12:31:17.341Z,62.73
2022-10-05T12:34:28.247Z,62.85
2022-10-05T12:37:17.052Z,63.01
2022-10-05T12:40:06.172Z,63.07
2022-10-05T12:42:58.316Z,62.71
2022-10-05T12:45:39.738Z,62.29
2022-10-05T12:48:52.426Z,62.39
2022-10-05T12:51:48.024Z,62.38
2022-10-05T12:54:54.143Z,62.33
2022-10-05T12:57:49.043Z,62.38
2022-10-05T13:00:22.874Z,62.69
2022-10-05T13:03:12.967Z,62.58
2022-10-05T13:06:31.031Z,61.89
2022-10-05T13:09:29.013Z,61.72
2022-10-05T13:12:06.151Z,61.93
2022-10-05T13:15:06.911Z,61.66
2022-10-05T13:18:16.724Z,61.56
2022-10-05T13:20:58.671Z,60.94
2022-10-05T13:23:58.466Z,61.03
2022-10-05T13:26:37.613Z,61.30
2022-10-05T13:29:25.750Z,61.29
2022-10-05T13:32:00.290Z,61.09
2022-10-05T13:35:20.616Z,60.14
2022-10-05T13:38:11.951Z,60.83
2022-10-05T13:41:17.654Z,60.88
2022-10-05T13:44:31.911Z,60.32
2022-10-05T13:47:20.820Z,61.02
2022-10-05T13:49:55.092Z,60.88
2022-10-05T13:52:42.226Z,60.35
2022-10-05T13:55:39.939Z,60.42
2022-10-05T13:58:15.019Z,61.33
2022-10-05T14:00:55.731Z,61.01
2022-10-05T14:03:37.945Z,60.86
2022-10-05T14:06:29.828Z,61.04
2022-10-05T14:08:59.951Z,61.40
2022-10-05T14:11:35.244Z,60.57
2022-10-05T14:14:10.740Z,60.87
2022-10-05T14:17:00.085Z,61.09
2022-10-05T14:19:40.664Z,61.63
2022-10-05T14:22:24.255Z,62.16
2022-10-05T14:25:17.042Z,62.71
2022-10-05T14:28:07.709Z,62.26
2022-10-05T14:30:34.935Z,62.27
2022-10-05T14:33:04.434Z,61.66
2022-10-05T14:35:50.060Z,61.29
2022-10-05T14:38:26.233Z,61.62
2022-10-05T14:41:07.876Z,61.88
2022-10-05T14:43:35.302Z,61.92
2022-10-05T14:46:25.390Z,61.83
2022-10-05T14:49:37.305Z,61.18
2022-10-05T14:52:32.469Z,62.13
2022-10-05T14:55:06.421Z,61.88
2022-10-05T14:57:57.760Z,61.42
2022-10-05T15:00:25.899Z,61.82
2022-10-05T15:03:31.236Z,61.72
2022-10-05T15:06:03.632Z,61.66
2022-10-05T15:09:00.864Z,61.34
2022-10-05T15:11:50.806Z,61.41
2022-10-05T15:14:27.010Z,61.51
2022-10-05T15:17:03.246Z,61.56
2022-10-05T15:20:10.374Z,61.53
2022-10-05T15:22:57.011Z,61.67
2022-10-05T15:25:40.297Z,61.99
2022-10-05T15:28:23.972Z,61.93
2022-10-05T15:31:04.154Z,61.75
2022-10-05T15:33:46.237Z,61.83
2022-10-05T15:36:35.377Z,62.14
2022-10-05T15:39:17.699Z,62.22
2022-10-05T15:42:00.761Z,62.19
2022-10-05T15:45:11.526Z,62.14
2022-10-05T15:48:05.044Z,62.35
2022-10-05T15:51:15.201Z,62.90
2022-10-05T15:54:35.798Z,63.39
2022-10-05T15:57:11.939Z,63.52
2022-10-05T16:00:01.814Z,63.81
2022-10-05T16:02:54.294Z,64.19
2022-10-05T16:06:06.373Z,63.97
2022-10-05T16:08:50.769Z,64.75
2022-10-05T16:11:51.489Z,64.96
2022-10-05T16:14:42.173Z,64.73
2022-10-05T16:17:36.262Z,65.12
2022-10-05T16:20:25.140Z,65.38
2022-10-05T16:23:07.908Z,65.51
2022-10-05T16:26:09.123Z,65.47
2022-10-05T16:29:11.195Z,65.69
2022-10-05T16:31:57.551Z,65.88
2022-10-05T16:34:49.430Z,65.77
2022-10-05T16:37:54.309Z,66.04
2022-10-05T16:40:51.116Z,66.20
2022-10-05T16:43:44.832Z,66.22
2022-10-05T16:46:36.916Z,66.55
2022-10-05T16:49:14.404Z,66.75
2022-10-05T16:51:56.607Z,66.61
2022-10-05T16:54:45.443Z,66.71
2022-10-05T16:57:46.358Z,66.75
2022-10-05T17:00:37.840Z,66.97
2022-10-05T17:03:39.913Z,67.28
2022-10-05T17:06:40.955Z,67.29
2022-10-05T17:09:35.308Z,67.66
2022-10-05T17:12:45.550Z,67.39
2022-10-05T17:15:33.058Z,68.20
2022-10-05T17:18:23.963Z,67.33
2022-10-05T17:21:51.422Z,67.64
2022-10-05T17:24:44.928Z,67.83
2022-10-05T17:27:51.172Z,67.52
2022-10-05T17:30:37.345Z,67.93
2022-10-05T17:33:14.095Z,68.05
2022-10-05T17:36:08.286Z,67.82
2022-10-05T17:38:34.674Z,68.03
2022-10-05T17:41:04.037Z,67.97
2022-10-05T17:43:33.014Z,68.14
2022-10-05T17:46:03.403Z,68.21
2022-10-05T17:48:54.187Z,68.32
2022-10-05T17:51:48.208Z,68.55
2022-10-05T17:55:08.987Z,68.43
2022-10-05T17:57:37.098Z,68.57
2022-10-05T18:00:55.897Z,68.59
2022-10-05T18:03:44.197Z,69.75
2022-10-05T18:06:26.201Z,70.64
2022-10-05T18:09:37.487Z,69.64
2022-10-05T18:12:16.086Z,69.86
2022-10-05T18:14:59.608Z,69.63
2022-10-05T18:17:51.556Z,69.50
2022-10-05T18:20:23.826Z,69.25
2022-10-05T18:22:54.131Z,68.96
2022-10-05T18:25:27.097Z,69.63
2022-10-05T18:28:34.005Z,69.62
2022-10-05T18:31:23.454Z,69.59
2022-10-05T18:34:17.487Z,69.67
2022-10-05T18:37:50.481Z,70.27
2022-10-05T18:40:58.174Z,70.02
2022-10-05T18:43:55.768Z,70.25
2022-10-05T18:46:43.557Z,70.15
2022-10-05T18:49:55.237Z,69.81
2022-10-05T18:52:59.453Z,70.63
2022-10-05T18:55:47.621Z,71.23
2022-10-05T18:58:37.342Z,70.16
2022-10-05T19:01:32.773Z,70.73
2022-10-05T19:04:18.703Z,70.41
2022-10-05T19:07:19.130Z,70.26
2022-10-05T19:10:10.518Z,70.97
2022-10-05T19:13:04.969Z,70.51
2022-10-05T19:15:52.435Z,70.04
2022-10-05T19:18:52.106Z,70.28
2022-10-05T19:22:09.185Z,70.25
2022-10-05T19:25:04.311Z,70.35
2022-10-05T19:27:55.187Z,70.16
2022-10-05T19:30:33.378Z,69.72
2022-10-05T19:33:12.987Z,69.47
2022-10-05T19:36:00.589Z,69.43
2022-10-05T19:38:58.820Z,68.99
2022-10-05T19:41:40.706Z,69.46
2022-10-05T19:44:22.327Z,69.39
2022-10-05T19:47:05.484Z,69.66
2022-10-05T19:49:40.093Z,69.78
2022-10-05T19:52:20.912Z,69.75
2022-10-05T19:55:00.544Z,69.51
2022-10-05T19:57:27.186Z,69.53
2022-10-05T19:59:58.166Z,69.32
2022-10-05T20:02:27.928Z,69.62
2022-10-05T20:05:07.010Z,69.49
2022-10-05T20:07:34.259Z,69.48
2022-10-05T20:10:29.582Z,69.35
2022-10-05T20:13:02.817Z,68.92
2022-10-05T20:15:54.421Z,68.84
2022-10-05T20:18:56.272Z,69.15
2022-10-05T20:21:43.842Z,69.09
2022-10-05T20:24:23.475Z,69.28
2022-10-05T20:27:04.716Z,69.09
2022-10-05T20:29:37.935Z,68.85
2022-10-05T20:32:14.001Z,68.75
2022-10-05T20:34:43.283Z,68.61
2022-10-05T20:37:13.202Z,68.37
2022-10-05T20:39:40.952Z,68.71
2022-10-05T20:42:09.723Z,68.95
2022-10-05T20:44:37.339Z,68.88
2022-10-05T20:47:08.610Z,68.94
2022-10-05T20:49:37.512Z,68.83
2022-10-05T20:52:06.327Z,68.48
2022-10-05T20:54:32.945Z,68.48
2022-10-05T20:56:59.439Z,68.33
2022-10-05T20:59:26.493Z,68.07
2022-10-05T21:01:53.022Z,68.13
2022-10-05T21:04:26.336Z,68.00
2022-10-05T21:06:54.094Z,68.33
2022-10-05T21:09:21.402Z,68.15
2022-10-05T21:11:51.483Z,67.88
2022-10-05T21:14:18.097Z,68.08
2022-10-05T21:16:45.760Z,68.26
2022-10-05T21:19:14.402Z,68.23
2022-10-05T21:21:44.087Z,68.09
2022-10-05T21:24:13.571Z,68.12
2022-10-05T21:26:42.049Z,68.10
2022-10-05T21:29:12.728Z,68.09
2022-10-05T21:31:40.211Z,68.17
2022-10-05T21:34:07.405Z,68.13
2022-10-05T21:36:34.789Z,67.98
2022-10-05T21:39:01.420Z,67.90
2022-10-05T21:41:27.900Z,67.93
2022-10-05T21:43:54.581Z,67.79
2022-10-05T21:46:26.492Z,67.45
2022-10-05T21:48:54.552Z,67.41
2022-10-05T21:51:25.351Z,67.27
2022-10-05T21:54:01.967Z,66.86
2022-10-05T21:56:35.434Z,66.75
2022-10-05T21:59:06.216Z,67.16
2022-10-05T22:01:35.816Z,67.10
2022-10-05T22:04:04.633Z,67.16
2022-10-05T22:06:31.633Z,66.80
2022-10-05T22:08:59.447Z,66.52
2022-10-05T22:11:27.071Z,66.35
2022-10-05T22:13:53.680Z,66.06
2022-10-05T22:16:23.605Z,65.75
2022-10-05T22:18:50.503Z,65.83
2022-10-05T22:21:17.421Z,65.88
2022-10-05T22:23:45.990Z,65.68
2022-10-05T22:26:16.612Z,65.97
2022-10-05T22:28:44.194Z,65.88
2022-10-05T22:31:12.631Z,65.99
2022-10-05T22:33:40.774Z,65.81
2022-10-05T22:36:09.349Z,65.87
2022-10-05T22:38:35.911Z,66.13
2022-10-05T22:41:02.760Z,66.07
2022-10-05T22:43:29.305Z,65.95
2022-10-05T22:45:56.193Z,66.18
2022-10-05T22:48:22.913Z,66.25
2022-10-05T22:50:49.418Z,66.38
2022-10-05T22:53:16.149Z,66.39
2022-10-05T22:55:42.566Z,66.50
2022-10-05T22:58:09.068Z,66.11
2022-10-05T23:00:57.150Z,66.25
2022-10-05T23:03:22.821Z,66.25
2022-10-05T23:06:00.547Z,66.35
2022-10-05T23:08:27.511Z,66.83
2022-10-05T23:10:54.372Z,66.58
2022-10-05T23:13:22.318Z,66.26
2022-10-05T23:15:48.990Z,66.57
2022-10-05T23:18:16.574Z,66.28
2022-10-05T23:20:43.071Z,66.50
2022-10-05T23:23:09.609Z,66.64
2022-10-05T23:25:36.594Z,66.42
2022-10-05T23:28:03.058Z,66.25
2022-10-05T23:30:29.627Z,66.47
2022-10-05T23:32:56.146Z,66.37
2022-10-05T23:35:22.779Z,66.25
2022-10-05T23:37:49.208Z,66.98
2022-10-05T23:40:15.678Z,67.02
2022-10-05T23:42:42.607Z,66.46
2022-10-05T23:45:11.745Z,66.67
2022-10-05T23:47:40.089Z,66.56
2022-10-05T23:50:09.053Z,66.52
2022-10-05T23:52:36.755Z,66.04
2022-10-05T23:55:05.352Z,66.18
2022-10-05T23:57:32.285Z,66.22
2022-10-05T23:59:58.769Z,65.99
